Time;durP1;ratioP1;P1;durP2;ratioP2;P2;SDS_P1;SDS_P2;PMS_P1;PMS_P2;Temp;Humidity;BMP_temperature;BMP_pressure;BME280_temperature;BME280_humidity;BME280_pressure;Samples;Min_cycle;Max_cycle;Signal;HPM_P1;HPM_P2
2023/08/23 00:02:15;;;;;;;12.60;5.88;;;16.70;99.90;;;;;;5037175;28;20500;-66
2023/08/23 00:04:40;;;;;;;11.57;6.05;;;16.70;99.90;;;;;;5037207;28;20137;-61
2023/08/23 00:07:06;;;;;;;14.85;6.07;;;16.60;99.90;;;;;;5032409;28;20056;-63
2023/08/23 00:09:32;;;;;;;13.27;6.20;;;16.60;99.90;;;;;;5038501;28;20032;-61
2023/08/23 00:11:57;;;;;;;18.20;5.70;;;16.60;99.90;;;;;;5037347;28;20029;-61
2023/08/23 00:14:23;;;;;;;12.45;5.82;;;16.60;99.90;;;;;;5036748;28;20036;-63
2023/08/23 00:16:48;;;;;;;11.25;5.30;;;16.60;99.90;;;;;;5031343;28;20060;-64
2023/08/23 00:19:14;;;;;;;10.70;6.25;;;16.50;99.90;;;;;;5031307;28;20102;-62
2023/08/23 00:21:39;;;;;;;13.20;6.28;;;16.50;99.90;;;;;;5030837;28;20399;-64
2023/08/23 00:24:05;;;;;;;15.77;6.07;;;16.50;99.90;;;;;;5031996;28;20028;-62
2023/08/23 00:26:30;;;;;;;11.48;5.75;;;16.50;99.90;;;;;;5040412;28;20040;-62
2023/08/23 00:28:56;;;;;;;11.88;6.53;;;16.50;99.90;;;;;;5039475;28;20025;-64
2023/08/23 00:31:22;;;;;;;14.63;5.95;;;16.50;99.90;;;;;;5034332;28;20030;-61
2023/08/23 00:33:47;;;;;;;9.82;6.00;;;16.50;99.90;;;;;;5037377;28;20036;-63
2023/08/23 00:36:13;;;;;;;16.42;6.88;;;16.50;99.90;;;;;;5033353;28;20044;-61
2023/08/23 00:38:39;;;;;;;16.25;6.25;;;16.40;99.90;;;;;;5030145;28;20651;-63
2023/08/23 00:41:04;;;;;;;15.18;7.00;;;16.40;99.90;;;;;;5030199;28;20104;-66
2023/08/23 00:43:30;;;;;;;15.25;6.07;;;16.40;99.90;;;;;;5031744;28;20369;-63
2023/08/23 00:45:55;;;;;;;16.98;6.75;;;16.30;99.90;;;;;;5025666;28;20421;-62
2023/08/23 00:48:21;;;;;;;10.05;5.72;;;16.30;99.90;;;;;;5031489;28;20040;-65
2023/08/23 00:50:46;;;;;;;10.18;5.78;;;16.20;99.90;;;;;;5036870;28;20562;-62
2023/08/23 00:53:14;;;;;;;11.88;6.55;;;16.30;99.90;;;;;;5032268;28;20028;-64
2023/08/23 00:55:40;;;;;;;12.45;5.75;;;16.30;99.90;;;;;;5035798;28;20040;-62
2023/08/23 00:58:06;;;;;;;13.07;6.45;;;16.20;99.90;;;;;;5040761;28;20029;-62
2023/08/23 01:00:32;;;;;;;13.82;6.63;;;16.30;99.90;;;;;;5032064;28;20462;-64
2023/08/23 01:02:58;;;;;;;12.25;5.72;;;16.20;99.90;;;;;;5038409;28;20037;-63
2023/08/23 01:05:33;;;;;;;11.13;5.75;;;16.30;99.90;;;;;;5042776;28;20017;-62
2023/08/23 01:08:09;;;;;;;7.05;5.13;;;16.30;99.90;;;;;;5036297;28;20032;-62
2023/08/23 01:10:38;;;;;;;9.98;5.70;;;16.20;99.90;;;;;;5034517;28;20048;-62
2023/08/23 01:13:19;;;;;;;11.18;5.30;;;16.10;99.90;;;;;;5036838;28;20072;-63
2023/08/23 01:15:45;;;;;;;17.77;6.13;;;16.20;99.90;;;;;;5036419;28;20387;-62
2023/08/23 01:18:13;;;;;;;9.80;6.57;;;16.20;99.90;;;;;;5034530;28;20029;-63
2023/08/23 01:20:38;;;;;;;10.23;6.20;;;16.10;99.90;;;;;;5034049;28;20037;-63
2023/08/23 01:23:14;;;;;;;25.77;7.15;;;16.10;99.90;;;;;;5041091;28;20071;-63
2023/08/23 01:25:44;;;;;;;16.40;7.20;;;16.00;99.90;;;;;;5030569;28;20155;-62
2023/08/23 01:28:09;;;;;;;14.85;6.82;;;16.10;99.90;;;;;;5033013;28;20436;-62
2023/08/23 01:30:37;;;;;;;11.80;6.05;;;16.00;99.90;;;;;;5034009;28;20160;-65
2023/08/23 01:33:11;;;;;;;15.27;7.05;;;16.00;99.90;;;;;;5029365;28;20052;-63
2023/08/23 01:36:08;;;;;;;14.00;7.03;;;16.00;99.90;;;;;;5032057;28;20453;-64
2023/08/23 01:38:34;;;;;;;12.20;6.60;;;16.00;99.90;;;;;;5031763;28;20032;-64
2023/08/23 01:41:00;;;;;;;15.20;7.30;;;16.00;99.90;;;;;;5030972;28;20025;-64
2023/08/23 01:43:26;;;;;;;16.35;6.97;;;16.00;99.90;;;;;;5033380;28;20445;-64
2023/08/23 01:45:52;;;;;;;19.92;7.40;;;16.00;99.90;;;;;;5030054;28;20021;-62
2023/08/23 01:48:17;;;;;;;12.40;7.13;;;15.90;99.90;;;;;;5029657;28;20052;-62
2023/08/23 01:50:43;;;;;;;11.40;6.80;;;15.80;99.90;;;;;;5032248;28;20056;-63
2023/08/23 01:53:08;;;;;;;11.32;6.50;;;15.80;99.90;;;;;;5031919;28;20079;-65
2023/08/23 01:55:34;;;;;;;11.50;6.47;;;15.80;99.90;;;;;;5031481;28;20147;-61
2023/08/23 01:57:59;;;;;;;9.82;6.72;;;15.80;99.90;;;;;;5031078;28;20041;-63
2023/08/23 02:00:25;;;;;;;11.27;6.35;;;15.70;99.90;;;;;;5031897;28;20047;-64
2023/08/23 02:02:50;;;;;;;13.00;6.78;;;15.80;99.90;;;;;;5038308;28;20029;-63
2023/08/23 02:05:16;;;;;;;21.08;6.70;;;15.70;99.90;;;;;;5038516;28;20025;-63
2023/08/23 02:07:41;;;;;;;11.43;6.78;;;15.70;99.90;;;;;;5038404;28;20029;-62
2023/08/23 02:10:07;;;;;;;10.07;6.57;;;15.70;99.90;;;;;;5031715;28;20083;-65
2023/08/23 02:12:33;;;;;;;8.52;6.25;;;15.70;99.90;;;;;;5035074;28;20121;-62
2023/08/23 02:14:58;;;;;;;16.42;6.53;;;15.70;99.90;;;;;;5036114;28;20112;-64
2023/08/23 02:17:24;;;;;;;15.07;6.72;;;15.70;99.90;;;;;;5037482;28;20041;-63
2023/08/23 02:19:49;;;;;;;18.48;6.70;;;15.60;99.90;;;;;;5036795;28;20068;-64
2023/08/23 02:22:15;;;;;;;17.30;6.90;;;15.70;99.90;;;;;;5034030;28;20048;-63
2023/08/23 02:24:41;;;;;;;12.82;6.78;;;15.60;99.90;;;;;;5034851;28;20025;-63
2023/08/23 02:27:06;;;;;;;13.98;6.70;;;15.60;99.90;;;;;;5033959;28;20464;-64
2023/08/23 02:29:32;;;;;;;9.43;6.72;;;15.70;99.90;;;;;;5036553;28;20025;-66
2023/08/23 02:31:57;;;;;;;14.68;6.57;;;15.70;99.90;;;;;;5032528;28;20029;-64
2023/08/23 02:34:23;;;;;;;17.20;6.80;;;15.70;99.90;;;;;;5045306;28;20045;-62
2023/08/23 02:36:48;;;;;;;17.45;7.22;;;15.70;99.90;;;;;;5034942;28;20131;-61
2023/08/23 02:39:14;;;;;;;12.57;6.70;;;15.60;99.90;;;;;;5035093;28;20037;-63
2023/08/23 02:41:40;;;;;;;14.18;7.72;;;15.60;99.90;;;;;;5040717;28;20442;-63
2023/08/23 02:44:05;;;;;;;16.05;7.88;;;15.60;99.90;;;;;;5047094;28;20051;-62
2023/08/23 02:46:31;;;;;;;9.82;7.07;;;15.60;99.90;;;;;;5035422;28;20043;-63
2023/08/23 02:48:56;;;;;;;12.00;7.25;;;15.60;99.90;;;;;;5040892;28;20381;-63
2023/08/23 02:51:22;;;;;;;13.45;7.57;;;15.50;99.90;;;;;;5039946;28;20380;-64
2023/08/23 02:53:47;;;;;;;11.65;7.43;;;15.50;99.90;;;;;;5039072;28;20036;-63
2023/08/23 02:56:13;;;;;;;14.85;7.63;;;15.50;99.90;;;;;;5046887;28;20414;-63
2023/08/23 02:58:39;;;;;;;12.07;7.65;;;15.40;99.90;;;;;;5040401;28;20029;-62
2023/08/23 03:01:05;;;;;;;19.75;7.93;;;15.40;99.90;;;;;;5039084;28;20037;-62
2023/08/23 03:03:30;;;;;;;24.63;8.70;;;15.40;99.90;;;;;;5036822;28;20022;-65
2023/08/23 03:05:57;;;;;;;14.60;6.68;;;15.30;99.90;;;;;;5048557;28;20086;-66
2023/08/23 03:08:24;;;;;;;17.98;7.88;;;15.30;99.90;;;;;;5037287;28;20171;-64
2023/08/23 03:10:50;;;;;;;11.93;7.18;;;15.30;99.90;;;;;;5043888;28;20028;-62
2023/08/23 03:13:16;;;;;;;14.65;7.40;;;15.30;99.90;;;;;;5037968;28;20041;-63
2023/08/23 03:15:41;;;;;;;11.10;7.30;;;15.30;99.90;;;;;;5043894;28;20077;-62
2023/08/23 03:18:07;;;;;;;17.15;6.93;;;15.20;99.90;;;;;;5041824;28;20480;-61
2023/08/23 03:20:33;;;;;;;15.18;8.68;;;15.20;99.90;;;;;;5039621;28;20026;-64
2023/08/23 03:22:59;;;;;;;11.65;8.27;;;15.20;99.90;;;;;;5038412;28;20025;-63
2023/08/23 03:25:24;;;;;;;14.07;7.85;;;15.20;99.90;;;;;;5042422;28;20029;-64
2023/08/23 03:27:52;;;;;;;18.30;7.80;;;15.20;99.90;;;;;;5035632;28;20108;-63
2023/08/23 03:30:18;;;;;;;11.23;7.50;;;15.20;99.90;;;;;;5039229;28;20033;-64
2023/08/23 03:32:44;;;;;;;10.55;7.85;;;15.20;99.90;;;;;;5041409;28;20383;-63
2023/08/23 03:35:10;;;;;;;20.00;8.18;;;15.20;99.90;;;;;;5033182;28;20025;-63
2023/08/23 03:37:35;;;;;;;13.20;8.10;;;15.20;99.90;;;;;;5034338;28;20544;-62
2023/08/23 03:40:01;;;;;;;22.33;8.80;;;15.20;99.90;;;;;;5032599;28;20028;-65
2023/08/23 03:42:27;;;;;;;16.33;7.45;;;15.20;99.90;;;;;;5033471;28;20029;-64
2023/08/23 03:44:53;;;;;;;16.42;8.45;;;15.20;99.90;;;;;;5033951;28;21520;-64
2023/08/23 03:47:18;;;;;;;14.55;8.18;;;15.20;99.90;;;;;;5029671;28;20055;-63
2023/08/23 03:49:44;;;;;;;16.40;7.90;;;15.10;99.90;;;;;;5046196;28;20025;-61
2023/08/23 03:52:09;;;;;;;18.73;9.73;;;15.10;99.90;;;;;;5033714;28;20072;-63
2023/08/23 03:54:35;;;;;;;15.32;8.38;;;15.10;99.90;;;;;;5033318;28;20034;-65
2023/08/23 03:57:00;;;;;;;23.60;8.30;;;15.20;99.90;;;;;;5034479;28;20030;-61
2023/08/23 03:59:26;;;;;;;15.82;8.48;;;15.10;99.90;;;;;;5038472;28;20511;-62
2023/08/23 04:01:52;;;;;;;17.45;7.68;;;15.00;99.90;;;;;;5031893;28;20029;-65
2023/08/23 04:04:17;;;;;;;13.63;7.10;;;15.00;99.90;;;;;;5035856;28;20439;-63
2023/08/23 04:06:43;;;;;;;21.80;8.20;;;15.00;99.90;;;;;;5036464;28;20044;-62
2023/08/23 04:09:09;;;;;;;16.35;8.05;;;15.10;99.90;;;;;;5040308;28;20035;-62
2023/08/23 04:11:34;;;;;;;16.13;7.97;;;15.10;99.90;;;;;;5038441;28;20456;-63
2023/08/23 04:14:00;;;;;;;11.88;7.90;;;15.10;99.90;;;;;;5033904;28;20406;-65
2023/08/23 04:16:25;;;;;;;15.43;9.18;;;15.00;99.90;;;;;;5037601;28;20557;-63
2023/08/23 04:18:51;;;;;;;15.18;9.07;;;15.00;99.90;;;;;;5034495;28;20407;-64
2023/08/23 04:21:17;;;;;;;17.02;8.68;;;15.10;99.90;;;;;;5036250;28;20064;-64
2023/08/23 04:23:42;;;;;;;14.82;8.80;;;15.00;99.90;;;;;;5034879;28;20018;-62
2023/08/23 04:26:08;;;;;;;14.80;8.57;;;15.10;99.90;;;;;;5043974;28;20395;-63
2023/08/23 04:28:33;;;;;;;15.30;8.27;;;15.00;99.90;;;;;;5028497;28;20029;-63
2023/08/23 04:31:00;;;;;;;14.05;8.90;;;15.00;99.90;;;;;;5037436;28;20037;-62
2023/08/23 04:33:26;;;;;;;14.55;9.95;;;15.00;99.90;;;;;;5034932;28;20129;-64
2023/08/23 04:35:51;;;;;;;17.80;9.10;;;15.00;99.90;;;;;;5039905;28;20078;-64
2023/08/23 04:38:17;;;;;;;17.40;10.45;;;15.10;99.90;;;;;;5039434;28;20414;-62
2023/08/23 04:40:42;;;;;;;17.25;10.13;;;15.00;99.90;;;;;;5038260;28;20499;-66
2023/08/23 04:43:08;;;;;;;30.77;9.68;;;15.10;99.90;;;;;;5029509;28;20039;-61
2023/08/23 04:45:37;;;;;;;21.67;10.80;;;15.00;99.90;;;;;;5028351;28;20495;-64
2023/08/23 04:48:03;;;;;;;18.40;9.43;;;15.00;99.90;;;;;;5028247;28;20025;-64
2023/08/23 04:50:29;;;;;;;19.73;10.88;;;15.00;99.90;;;;;;5037899;28;20092;-64
2023/08/23 04:52:55;;;;;;;23.67;13.35;;;15.00;99.90;;;;;;5031424;28;20034;-64
2023/08/23 04:55:20;;;;;;;20.98;12.38;;;15.00;99.90;;;;;;5042451;28;20416;-63
2023/08/23 04:57:46;;;;;;;20.48;11.70;;;15.00;99.90;;;;;;5034981;28;20043;-61
2023/08/23 05:00:13;;;;;;;22.65;11.82;;;15.00;99.90;;;;;;5034286;28;20033;-60
2023/08/23 05:02:39;;;;;;;18.08;12.00;;;15.00;99.90;;;;;;5035589;28;20117;-63
2023/08/23 05:05:05;;;;;;;18.88;10.45;;;15.10;99.90;;;;;;5038640;28;20548;-63
2023/08/23 05:07:31;;;;;;;18.70;10.68;;;15.10;99.90;;;;;;5035380;28;20090;-60
2023/08/23 05:09:56;;;;;;;20.88;11.30;;;15.20;99.90;;;;;;5030731;28;20037;-57
2023/08/23 05:12:22;;;;;;;20.40;11.10;;;15.20;99.90;;;;;;5036846;28;20041;-57
2023/08/23 05:14:47;;;;;;;23.38;11.10;;;15.30;99.90;;;;;;5040522;28;20030;-59
2023/08/23 05:17:13;;;;;;;17.20;10.60;;;15.30;99.90;;;;;;5043696;28;20038;-58
2023/08/23 05:19:38;;;;;;;21.50;10.23;;;15.30;99.90;;;;;;5037974;28;20108;-55
2023/08/23 05:22:04;;;;;;;18.60;11.25;;;15.40;99.90;;;;;;5033078;28;20075;-57
2023/08/23 05:24:29;;;;;;;25.70;12.38;;;15.50;99.90;;;;;;5032467;28;20030;-56
2023/08/23 05:26:55;;;;;;;23.92;11.40;;;15.50;99.90;;;;;;5030681;28;20037;-56
2023/08/23 05:29:20;;;;;;;18.02;12.00;;;15.50;99.90;;;;;;5029789;28;20052;-55
2023/08/23 05:31:46;;;;;;;19.08;12.13;;;15.60;99.90;;;;;;5024897;28;20045;-58
2023/08/23 05:34:11;;;;;;;20.98;11.73;;;15.60;99.90;;;;;;5032284;28;20036;-56
2023/08/23 05:36:37;;;;;;;19.70;12.82;;;15.60;99.90;;;;;;5033113;28;20445;-53
2023/08/23 05:39:04;;;;;;;19.30;12.75;;;15.70;99.90;;;;;;5040118;28;20552;-58
2023/08/23 05:41:29;;;;;;;27.85;14.52;;;15.70;99.90;;;;;;5036546;28;20036;-57
2023/08/23 05:43:55;;;;;;;18.88;13.85;;;15.80;99.90;;;;;;5039519;28;20552;-57
2023/08/23 05:46:21;;;;;;;21.67;13.77;;;15.80;99.90;;;;;;5045509;28;20036;-56
2023/08/23 05:48:47;;;;;;;23.77;15.10;;;15.80;99.90;;;;;;5051961;28;20055;-61
2023/08/23 05:51:13;;;;;;;33.47;14.98;;;15.90;99.90;;;;;;5043787;28;20024;-57
2023/08/23 05:53:38;;;;;;;29.70;17.02;;;16.00;99.90;;;;;;5036774;28;20021;-57
2023/08/23 05:56:05;;;;;;;31.15;15.95;;;16.00;99.90;;;;;;5038907;28;20483;-60
2023/08/23 05:58:30;;;;;;;28.45;15.50;;;16.10;99.90;;;;;;5038234;28;20049;-57
2023/08/23 06:00:56;;;;;;;29.10;16.55;;;16.20;99.90;;;;;;5043730;28;20029;-54
2023/08/23 06:03:22;;;;;;;22.77;15.23;;;16.30;99.90;;;;;;5038868;28;20558;-57
2023/08/23 06:05:51;;;;;;;28.10;18.20;;;16.30;99.90;;;;;;5041407;28;20017;-57
2023/08/23 06:08:17;;;;;;;23.58;15.70;;;16.40;99.90;;;;;;5037093;28;20033;-56
2023/08/23 06:10:42;;;;;;;27.73;14.93;;;16.50;99.90;;;;;;5040790;28;20511;-59
2023/08/23 06:13:08;;;;;;;17.65;13.38;;;16.50;99.90;;;;;;5034965;28;20025;-56
2023/08/23 06:15:34;;;;;;;26.23;14.82;;;16.60;99.90;;;;;;5039519;28;20541;-57
2023/08/23 06:18:00;;;;;;;25.77;16.17;;;16.60;99.90;;;;;;5036695;28;20021;-57
2023/08/23 06:20:26;;;;;;;28.33;16.42;;;16.60;99.90;;;;;;5038353;28;20040;-57
2023/08/23 06:22:51;;;;;;;21.77;16.27;;;16.70;99.90;;;;;;5043907;28;20025;-56
2023/08/23 06:25:17;;;;;;;35.13;17.33;;;16.80;99.90;;;;;;5042683;28;20087;-59
2023/08/23 06:27:44;;;;;;;32.05;17.60;;;16.90;99.90;;;;;;5036992;28;20026;-52
2023/08/23 06:30:10;;;;;;;31.90;17.25;;;16.90;99.90;;;;;;5041277;28;20116;-56
2023/08/23 06:32:35;;;;;;;24.73;16.65;;;17.00;99.90;;;;;;5035349;28;20105;-58
2023/08/23 06:35:02;;;;;;;23.92;16.80;;;17.00;99.90;;;;;;5042184;28;20395;-54
2023/08/23 06:37:28;;;;;;;23.58;15.80;;;17.10;99.90;;;;;;5039581;28;20041;-54
2023/08/23 06:39:54;;;;;;;27.73;16.00;;;17.20;99.90;;;;;;5042836;28;20517;-57
2023/08/23 06:42:19;;;;;;;29.90;17.27;;;17.20;99.90;;;;;;5036645;28;20033;-54
2023/08/23 06:44:45;;;;;;;28.42;15.85;;;17.30;99.90;;;;;;5034279;28;20076;-54
2023/08/23 06:47:11;;;;;;;25.63;15.85;;;17.30;99.90;;;;;;5039678;28;20047;-54
2023/08/23 06:49:36;;;;;;;28.52;17.10;;;17.40;99.90;;;;;;5045569;28;20067;-58
2023/08/23 06:52:02;;;;;;;28.30;17.65;;;17.40;99.90;;;;;;5039761;28;20475;-55
2023/08/23 06:54:28;;;;;;;26.95;14.35;;;17.50;99.90;;;;;;5043602;28;20060;-56
2023/08/23 06:56:53;;;;;;;27.30;18.98;;;17.50;99.90;;;;;;5037553;28;20025;-54
2023/08/23 06:59:19;;;;;;;27.73;18.25;;;17.60;99.90;;;;;;5044845;28;20547;-54
2023/08/23 07:01:46;;;;;;;29.58;19.73;;;17.70;99.90;;;;;;5045882;28;20377;-54
2023/08/23 07:04:11;;;;;;;29.08;19.63;;;17.70;99.90;;;;;;5038162;28;20040;-56
2023/08/23 07:06:37;;;;;;;29.33;18.90;;;17.80;99.90;;;;;;5037254;28;20029;-54
2023/08/23 07:09:03;;;;;;;23.55;15.73;;;17.90;99.90;;;;;;5037409;28;20017;-54
2023/08/23 07:11:29;;;;;;;19.83;14.15;;;17.90;99.90;;;;;;5039852;28;20025;-57
2023/08/23 07:13:54;;;;;;;18.15;12.63;;;18.00;99.90;;;;;;5040110;28;20026;-56
2023/08/23 07:16:20;;;;;;;22.00;14.05;;;18.10;99.90;;;;;;5041411;28;20491;-56
2023/08/23 07:18:45;;;;;;;17.27;12.75;;;18.10;99.90;;;;;;5045775;28;20087;-57
2023/08/23 07:21:11;;;;;;;25.30;16.30;;;18.20;99.90;;;;;;5044659;28;20118;-54
2023/08/23 07:23:36;;;;;;;16.15;13.15;;;18.30;99.90;;;;;;5047074;28;20391;-56
2023/08/23 07:26:03;;;;;;;21.08;16.10;;;18.30;99.90;;;;;;5045793;28;20029;-53
2023/08/23 07:28:29;;;;;;;22.67;14.80;;;18.40;99.90;;;;;;5042497;28;20113;-57
2023/08/23 07:30:57;;;;;;;30.15;17.50;;;18.40;99.90;;;;;;5047434;28;20025;-56
2023/08/23 07:33:27;;;;;;;27.48;17.98;;;18.50;99.90;;;;;;5046961;28;20096;-57
2023/08/23 07:35:57;;;;;;;33.60;21.75;;;18.60;99.90;;;;;;5040708;28;20032;-56
2023/08/23 07:38:23;;;;;;;35.15;19.67;;;18.80;99.90;;;;;;5042402;28;20037;-54
2023/08/23 07:40:48;;;;;;;32.90;20.05;;;18.80;99.90;;;;;;5037944;28;20079;-54
2023/08/23 07:43:14;;;;;;;27.65;18.90;;;18.90;99.90;;;;;;5034581;28;20061;-56
2023/08/23 07:45:39;;;;;;;25.80;17.60;;;18.90;99.90;;;;;;5038340;28;20049;-56
2023/08/23 07:48:05;;;;;;;36.50;23.00;;;19.00;99.90;;;;;;5037205;28;20025;-57
2023/08/23 07:50:31;;;;;;;31.65;18.23;;;19.10;99.90;;;;;;5037718;28;20037;-55
2023/08/23 07:52:56;;;;;;;32.33;17.95;;;19.20;99.90;;;;;;5038751;28;20033;-57
2023/08/23 07:55:22;;;;;;;33.72;21.48;;;19.30;99.90;;;;;;5036017;28;20033;-58
2023/08/23 07:57:48;;;;;;;31.45;20.60;;;19.40;99.90;;;;;;5039465;28;20025;-54
2023/08/23 08:00:13;;;;;;;28.05;17.35;;;19.50;99.90;;;;;;5040906;28;20301;-58
2023/08/23 08:02:39;;;;;;;33.15;18.77;;;19.60;99.90;;;;;;5039531;28;20029;-57
2023/08/23 08:05:07;;;;;;;28.05;18.27;;;19.70;99.90;;;;;;5043472;28;20104;-55
2023/08/23 08:07:33;;;;;;;25.15;14.70;;;19.80;99.90;;;;;;5039846;28;20021;-55
2023/08/23 08:09:58;;;;;;;24.77;18.40;;;19.90;99.90;;;;;;5044475;28;20380;-56
2023/08/23 08:12:24;;;;;;;31.33;17.52;;;20.10;99.90;;;;;;5033999;28;20029;-54
2023/08/23 08:14:50;;;;;;;24.65;16.00;;;20.20;99.90;;;;;;5047212;28;20031;-57
2023/08/23 08:17:15;;;;;;;26.15;14.27;;;20.30;99.90;;;;;;5039184;28;20078;-58
2023/08/23 08:19:41;;;;;;;28.88;14.32;;;20.30;99.90;;;;;;5042881;28;20026;-57
2023/08/23 08:22:07;;;;;;;26.42;15.57;;;20.40;99.90;;;;;;5041383;28;20075;-54
2023/08/23 08:24:32;;;;;;;30.50;14.40;;;20.50;99.90;;;;;;5038850;28;20021;-56
2023/08/23 08:26:58;;;;;;;27.30;14.38;;;20.60;99.90;;;;;;5038086;28;20501;-58
2023/08/23 08:29:24;;;;;;;28.30;13.68;;;20.60;99.90;;;;;;5043865;28;20044;-58
2023/08/23 08:31:50;;;;;;;23.23;12.25;;;20.70;99.90;;;;;;5033918;28;20029;-56
2023/08/23 08:34:17;;;;;;;22.73;13.57;;;20.90;99.90;;;;;;5040226;28;20029;-60
2023/08/23 08:36:43;;;;;;;40.10;13.15;;;21.00;99.90;;;;;;5037590;28;20455;-60
2023/08/23 08:39:08;;;;;;;23.80;11.88;;;21.10;99.90;;;;;;5041512;28;20040;-59
2023/08/23 08:41:34;;;;;;;27.13;13.60;;;21.20;99.90;;;;;;5044291;28;20035;-57
2023/08/23 08:44:00;;;;;;;19.70;11.35;;;21.30;99.90;;;;;;5053845;28;20395;-57
2023/08/23 08:46:26;;;;;;;20.88;11.52;;;21.40;99.90;;;;;;5056567;28;20025;-56
2023/08/23 08:48:52;;;;;;;16.02;10.35;;;21.50;99.90;;;;;;5053307;28;20371;-57
2023/08/23 08:51:20;;;;;;;22.33;11.15;;;21.70;99.90;;;;;;5044005;28;20052;-59
2023/08/23 08:53:51;;;;;;;20.20;11.07;;;21.80;99.90;;;;;;5033755;28;20021;-57
2023/08/23 08:56:19;;;;;;;17.65;9.85;;;22.00;99.90;;;;;;5043254;28;20432;-54
2023/08/23 08:58:45;;;;;;;23.27;11.85;;;22.10;99.90;;;;;;5043016;28;20021;-57
2023/08/23 09:01:13;;;;;;;24.10;13.23;;;22.20;99.90;;;;;;5042689;28;20017;-57
2023/08/23 09:03:40;;;;;;;23.75;12.70;;;22.20;99.90;;;;;;5044053;28;20035;-57
2023/08/23 09:06:07;;;;;;;23.38;12.18;;;22.30;99.90;;;;;;5041507;28;20491;-56
2023/08/23 09:08:33;;;;;;;20.45;9.57;;;22.40;99.90;;;;;;5036792;28;20107;-56
2023/08/23 09:10:59;;;;;;;26.35;15.68;;;22.50;99.90;;;;;;5043504;28;20036;-54
2023/08/23 09:13:25;;;;;;;26.45;14.52;;;22.60;99.90;;;;;;5040858;28;20036;-54
2023/08/23 09:15:51;;;;;;;41.70;12.57;;;22.70;99.90;;;;;;5038532;28;20060;-55
2023/08/23 09:18:20;;;;;;;18.70;10.95;;;22.80;99.90;;;;;;5037078;28;20111;-54
2023/08/23 09:20:46;;;;;;;17.58;8.98;;;22.90;99.90;;;;;;5045612;28;20075;-55
2023/08/23 09:23:11;;;;;;;17.85;9.20;;;23.00;99.90;;;;;;5041153;28;20025;-55
2023/08/23 09:25:37;;;;;;;28.95;10.77;;;23.10;99.90;;;;;;5044823;28;20030;-56
2023/08/23 09:28:03;;;;;;;18.35;10.38;;;23.30;99.90;;;;;;5042814;28;20490;-58
2023/08/23 09:30:29;;;;;;;15.00;8.82;;;23.40;99.90;;;;;;5042889;28;20403;-55
2023/08/23 09:32:57;;;;;;;16.38;10.15;;;23.50;99.90;;;;;;5040738;28;20022;-53
2023/08/23 09:35:23;;;;;;;23.02;9.70;;;23.60;99.90;;;;;;5046326;28;20057;-56
2023/08/23 09:37:49;;;;;;;17.92;10.68;;;23.80;99.90;;;;;;5042361;28;20625;-54
2023/08/23 09:40:19;;;;;;;22.40;7.50;;;23.90;99.90;;;;;;5036654;28;20537;-58
2023/08/23 09:42:45;;;;;;;13.10;7.40;;;24.10;99.90;;;;;;5038262;28;20526;-54
2023/08/23 09:45:16;;;;;;;18.42;6.43;;;24.20;99.90;;;;;;5039502;28;20110;-54
2023/08/23 09:47:52;;;;;;;18.35;6.88;;;24.40;99.90;;;;;;5036565;28;20079;-56
2023/08/23 09:50:22;;;;;;;15.23;7.00;;;24.40;99.90;;;;;;5047462;28;20025;-55
2023/08/23 09:52:52;;;;;;;15.68;7.78;;;24.40;99.90;;;;;;5041408;28;20030;-56
2023/08/23 09:55:18;;;;;;;15.43;8.23;;;24.40;99.90;;;;;;5037143;28;20376;-56
2023/08/23 09:57:44;;;;;;;23.00;9.63;;;24.50;99.90;;;;;;5038642;28;20029;-54
2023/08/23 10:00:11;;;;;;;18.55;7.10;;;24.50;99.90;;;;;;5038705;28;20048;-54
2023/08/23 10:02:38;;;;;;;14.48;6.40;;;24.70;99.90;;;;;;5042520;28;20145;-56
2023/08/23 10:05:06;;;;;;;16.60;7.00;;;25.00;99.90;;;;;;5037487;28;20091;-56
2023/08/23 10:07:35;;;;;;;15.25;6.65;;;25.30;99.90;;;;;;5038162;28;20036;-56
2023/08/23 10:10:01;;;;;;;16.50;7.90;;;25.60;99.90;;;;;;5041449;28;20495;-57
2023/08/23 10:12:28;;;;;;;15.13;6.28;;;25.70;99.90;;;;;;5032836;28;20060;-57
2023/08/23 10:14:57;;;;;;;17.33;6.10;;;25.70;99.90;;;;;;5034742;28;20116;-56
2023/08/23 10:17:24;;;;;;;13.30;6.00;;;25.50;99.90;;;;;;5041246;28;20101;-60
2023/08/23 10:19:50;;;;;;;23.33;6.47;;;25.50;99.90;;;;;;5039358;28;20033;-56
2023/08/23 10:22:17;;;;;;;11.35;5.88;;;25.70;99.90;;;;;;5043455;28;20086;-58
2023/08/23 10:24:46;;;;;;;15.07;5.50;;;25.80;99.90;;;;;;5041666;28;20493;-54
2023/08/23 10:27:12;;;;;;;15.25;5.30;;;26.10;99.90;;;;;;5040643;28;20029;-57
2023/08/23 10:29:38;;;;;;;15.52;4.60;;;26.20;99.90;;;;;;5042047;28;20068;-56
2023/08/23 10:32:13;;;;;;;9.10;4.65;;;25.90;99.90;;;;;;5046931;28;20029;-53
2023/08/23 10:34:40;;;;;;;14.90;4.22;;;25.80;99.90;;;;;;5045510;28;20491;-54
2023/08/23 10:37:16;;;;;;;10.95;3.85;;;25.80;99.90;;;;;;5042805;28;20021;-53
2023/08/23 10:39:50;;;;;;;8.50;4.65;;;26.00;99.90;;;;;;5040637;28;20030;-54
2023/08/23 10:42:17;;;;;;;14.65;4.95;;;26.40;99.90;;;;;;5048192;28;20475;-53
2023/08/23 10:44:46;;;;;;;15.48;4.90;;;26.60;99.90;;;;;;5045129;28;20033;-56
2023/08/23 10:47:15;;;;;;;10.40;4.75;;;26.80;99.90;;;;;;5043715;28;20029;-56
2023/08/23 10:49:41;;;;;;;13.38;4.63;;;27.10;99.90;;;;;;5046472;28;20025;-56
2023/08/23 10:52:07;;;;;;;11.63;3.10;;;27.20;99.90;;;;;;5042243;28;20048;-57
2023/08/23 10:54:34;;;;;;;7.40;2.28;;;27.10;99.90;;;;;;5042094;28;20032;-57
2023/08/23 10:57:00;;;;;;;6.72;1.83;;;27.00;99.90;;;;;;5045053;28;20025;-56
2023/08/23 10:59:25;;;;;;;7.38;1.98;;;27.10;99.90;;;;;;5041389;28;20043;-58
2023/08/23 11:01:51;;;;;;;11.15;1.85;;;27.10;99.90;;;;;;5048898;28;20025;-56
2023/08/23 11:04:17;;;;;;;7.15;1.85;;;27.30;99.90;;;;;;5038716;28;20025;-56
2023/08/23 11:06:45;;;;;;;5.93;2.03;;;27.40;99.90;;;;;;5036688;28;20139;-56
2023/08/23 11:09:10;;;;;;;9.55;2.13;;;27.40;99.90;;;;;;5049709;28;20094;-56
2023/08/23 11:11:36;;;;;;;4.97;1.60;;;27.40;99.90;;;;;;5042950;28;20033;-57
2023/08/23 11:14:03;;;;;;;6.20;2.65;;;27.50;99.90;;;;;;5043022;28;20491;-53
2023/08/23 11:16:28;;;;;;;7.97;2.25;;;27.80;99.90;;;;;;5041709;28;20041;-57
2023/08/23 11:18:54;;;;;;;4.50;1.65;;;27.90;99.90;;;;;;5053278;28;20031;-54
2023/08/23 11:21:20;;;;;;;3.42;1.83;;;28.00;99.90;;;;;;5038864;28;20136;-56
2023/08/23 11:23:45;;;;;;;6.65;1.48;;;27.90;99.90;;;;;;5041240;28;20018;-58
2023/08/23 11:26:11;;;;;;;5.95;1.80;;;28.00;99.90;;;;;;5040483;28;20044;-57
2023/08/23 11:28:36;;;;;;;4.00;1.80;;;28.10;99.90;;;;;;5040876;28;20029;-54
2023/08/23 11:31:06;;;;;;;10.07;1.95;;;28.20;99.90;;;;;;5039978;28;20036;-57
2023/08/23 11:33:33;;;;;;;13.55;2.10;;;28.30;99.90;;;;;;5048328;28;20029;-57
2023/08/23 11:35:59;;;;;;;5.50;1.73;;;28.10;99.90;;;;;;5041884;28;20112;-59
2023/08/23 11:38:28;;;;;;;5.03;1.67;;;28.40;99.90;;;;;;5042401;28;20511;-56
2023/08/23 11:40:54;;;;;;;4.45;2.05;;;28.60;99.90;;;;;;5035450;28;20033;-56
2023/08/23 11:43:19;;;;;;;11.02;2.00;;;28.60;99.90;;;;;;5042681;28;20533;-58
2023/08/23 11:45:48;;;;;;;8.90;2.20;;;28.80;99.90;;;;;;5038267;28;20101;-55
2023/08/23 11:48:13;;;;;;;4.53;1.73;;;28.70;99.90;;;;;;5045818;28;20547;-53
2023/08/23 11:50:39;;;;;;;8.30;2.22;;;28.90;99.90;;;;;;5042626;28;20040;-53
2023/08/23 11:53:05;;;;;;;6.15;2.20;;;28.70;99.90;;;;;;5046115;28;20025;-56
2023/08/23 11:55:33;;;;;;;11.15;2.47;;;28.80;99.90;;;;;;5049538;28;20025;-57
2023/08/23 11:57:58;;;;;;;8.13;1.67;;;29.00;99.90;;;;;;5051841;28;20033;-57
2023/08/23 12:00:24;;;;;;;8.48;2.08;;;29.00;99.90;;;;;;5050470;28;20036;-56
2023/08/23 12:02:50;;;;;;;12.73;2.50;;;29.30;99.90;;;;;;5046253;28;20165;-54
2023/08/23 12:05:17;;;;;;;9.60;2.15;;;29.30;99.90;;;;;;5039898;28;20557;-57
2023/08/23 12:07:43;;;;;;;10.05;2.60;;;29.40;99.90;;;;;;5042558;28;20455;-56
2023/08/23 12:10:09;;;;;;;8.57;2.80;;;29.10;99.90;;;;;;5041533;28;20119;-57
2023/08/23 12:12:35;;;;;;;8.25;2.65;;;29.30;99.90;;;;;;5044923;28;20096;-55
2023/08/23 12:15:01;;;;;;;10.65;3.05;;;29.10;99.90;;;;;;5044057;28;20031;-57
2023/08/23 12:17:28;;;;;;;17.15;2.63;;;29.50;99.90;;;;;;5043692;28;20044;-55
2023/08/23 12:19:54;;;;;;;10.48;2.42;;;29.70;99.90;;;;;;5049599;28;20445;-57
2023/08/23 12:22:19;;;;;;;10.35;2.20;;;29.90;99.90;;;;;;5042589;28;20021;-57
2023/08/23 12:24:45;;;;;;;5.10;2.40;;;30.20;99.50;;;;;;5042964;28;20108;-53
2023/08/23 12:27:10;;;;;;;13.63;2.38;;;30.10;98.70;;;;;;5042725;28;20424;-56
2023/08/23 12:29:37;;;;;;;12.80;2.58;;;29.80;99.50;;;;;;5043600;28;20041;-58